Terminal Aerodrome Forecast
Issued by NWS

Home | Current Version | Previous Version | Text Only | Print | Product List | Glossary On
Versions: 1 2 3 4 5 6 7 8 9 10 11 12
000
FTUS45 KGJT 232331
TAFDRO
TAF
KDRO 232331Z 2400/2424 03016KT P6SM VCSH FEW100
     FM240300 35007KT P6SM FEW120 SCT250
     FM240800 02004KT P6SM SCT250
     FM241700 20004KT P6SM SCT250
     FM242000 26007KT P6SM SCT250
     FM242300 29011G19KT P6SM SCT250=

USA.gov is the U.S. government's official web portal to all federal, state and local government web resources and services.